sensor_id;sensor_type;location;lat;lon;timestamp;temperature;humidity
11609;DHT22;5860;52.018;8.536;2023-06-22T00:00:12;19.90;99.90
11609;DHT22;5860;52.018;8.536;2023-06-22T00:02:39;19.90;99.90
11609;DHT22;5860;52.018;8.536;2023-06-22T00:05:06;19.90;99.90
11609;DHT22;5860;52.018;8.536;2023-06-22T00:07:33;20.00;99.90
11609;DHT22;5860;52.018;8.536;2023-06-22T00:10:00;20.10;99.90
11609;DHT22;5860;52.018;8.536;2023-06-22T00:12:27;20.10;99.90
11609;DHT22;5860;52.018;8.536;2023-06-22T00:14:54;20.10;99.90
11609;DHT22;5860;52.018;8.536;2023-06-22T00:17:21;20.10;99.90
11609;DHT22;5860;52.018;8.536;2023-06-22T00:19:48;20.10;99.90
11609;DHT22;5860;52.018;8.536;2023-06-22T00:22:19;20.00;99.90
11609;DHT22;5860;52.018;8.536;2023-06-22T00:24:56;20.00;99.90
11609;DHT22;5860;52.018;8.536;2023-06-22T00:27:23;20.00;99.90
11609;DHT22;5860;52.018;8.536;2023-06-22T00:29:50;20.00;99.90
11609;DHT22;5860;52.018;8.536;2023-06-22T00:32:16;19.90;99.90
11609;DHT22;5860;52.018;8.536;2023-06-22T00:34:44;20.00;99.90
11609;DHT22;5860;52.018;8.536;2023-06-22T00:37:10;19.90;99.90
11609;DHT22;5860;52.018;8.536;2023-06-22T00:39:37;19.90;99.90
11609;DHT22;5860;52.018;8.536;2023-06-22T00:42:04;19.90;99.90
11609;DHT22;5860;52.018;8.536;2023-06-22T00:44:31;19.80;99.90
11609;DHT22;5860;52.018;8.536;2023-06-22T00:46:58;19.80;99.90
11609;DHT22;5860;52.018;8.536;2023-06-22T00:49:27;19.80;99.90
11609;DHT22;5860;52.018;8.536;2023-06-22T00:51:57;19.70;99.90
11609;DHT22;5860;52.018;8.536;2023-06-22T00:54:25;19.70;99.90
11609;DHT22;5860;52.018;8.536;2023-06-22T00:56:55;19.70;99.90
11609;DHT22;5860;52.018;8.536;2023-06-22T00:59:23;19.70;99.90
11609;DHT22;5860;52.018;8.536;2023-06-22T01:01:51;19.60;99.90
11609;DHT22;5860;52.018;8.536;2023-06-22T01:04:18;19.70;99.90
11609;DHT22;5860;52.018;8.536;2023-06-22T01:06:55;19.60;99.90
11609;DHT22;5860;52.018;8.536;2023-06-22T01:09:32;19.60;99.90
11609;DHT22;5860;52.018;8.536;2023-06-22T01:12:02;19.50;99.90
11609;DHT22;5860;52.018;8.536;2023-06-22T01:14:53;19.50;99.90
11609;DHT22;5860;52.018;8.536;2023-06-22T01:17:22;19.40;99.90
11609;DHT22;5860;52.018;8.536;2023-06-22T01:19:52;19.40;99.90
11609;DHT22;5860;52.018;8.536;2023-06-22T01:22:25;19.30;99.90
11609;DHT22;5860;52.018;8.536;2023-06-22T01:25:11;19.30;99.90
11609;DHT22;5860;52.018;8.536;2023-06-22T01:27:56;19.20;99.90
11609;DHT22;5860;52.018;8.536;2023-06-22T01:30:28;19.20;99.90
11609;DHT22;5860;52.018;8.536;2023-06-22T01:32:57;19.20;99.90
11609;DHT22;5860;52.018;8.536;2023-06-22T01:35:25;19.20;99.90
11609;DHT22;5860;52.018;8.536;2023-06-22T01:37:53;19.20;99.90
11609;DHT22;5860;52.018;8.536;2023-06-22T01:40:20;19.20;99.90
11609;DHT22;5860;52.018;8.536;2023-06-22T01:42:48;19.20;99.90
11609;DHT22;5860;52.018;8.536;2023-06-22T01:45:16;19.20;99.90
11609;DHT22;5860;52.018;8.536;2023-06-22T01:47:44;19.10;99.90
11609;DHT22;5860;52.018;8.536;2023-06-22T01:50:12;19.10;99.90
11609;DHT22;5860;52.018;8.536;2023-06-22T01:52:39;19.10;99.90
11609;DHT22;5860;52.018;8.536;2023-06-22T01:55:06;19.10;99.90
11609;DHT22;5860;52.018;8.536;2023-06-22T01:57:35;19.20;99.90
11609;DHT22;5860;52.018;8.536;2023-06-22T02:00:07;19.10;99.90
11609;DHT22;5860;52.018;8.536;2023-06-22T02:02:43;19.10;99.90
11609;DHT22;5860;52.018;8.536;2023-06-22T02:05:12;19.10;99.90
11609;DHT22;5860;52.018;8.536;2023-06-22T02:07:50;19.10;99.90
11609;DHT22;5860;52.018;8.536;2023-06-22T02:10:20;19.00;99.90
11609;DHT22;5860;52.018;8.536;2023-06-22T02:12:48;18.90;99.90
11609;DHT22;5860;52.018;8.536;2023-06-22T02:15:17;18.90;99.90
11609;DHT22;5860;52.018;8.536;2023-06-22T02:17:44;18.90;99.90
11609;DHT22;5860;52.018;8.536;2023-06-22T02:20:15;18.80;99.90
11609;DHT22;5860;52.018;8.536;2023-06-22T02:22:42;18.80;99.90
11609;DHT22;5860;52.018;8.536;2023-06-22T02:25:09;18.70;99.90
11609;DHT22;5860;52.018;8.536;2023-06-22T02:27:36;18.70;99.90
11609;DHT22;5860;52.018;8.536;2023-06-22T02:30:10;18.70;99.90
11609;DHT22;5860;52.018;8.536;2023-06-22T02:32:37;18.70;99.90
11609;DHT22;5860;52.018;8.536;2023-06-22T02:35:09;18.60;99.90
11609;DHT22;5860;52.018;8.536;2023-06-22T02:37:37;18.60;99.90
11609;DHT22;5860;52.018;8.536;2023-06-22T02:40:09;18.70;99.90
11609;DHT22;5860;52.018;8.536;2023-06-22T02:42:36;18.70;99.90
11609;DHT22;5860;52.018;8.536;2023-06-22T02:45:04;18.70;99.90
11609;DHT22;5860;52.018;8.536;2023-06-22T02:47:31;18.70;99.90
11609;DHT22;5860;52.018;8.536;2023-06-22T02:49:58;18.70;99.90
11609;DHT22;5860;52.018;8.536;2023-06-22T02:52:25;18.70;99.90
11609;DHT22;5860;52.018;8.536;2023-06-22T02:54:52;18.70;99.90
11609;DHT22;5860;52.018;8.536;2023-06-22T02:57:19;18.70;99.90
11609;DHT22;5860;52.018;8.536;2023-06-22T02:59:46;18.70;99.90
11609;DHT22;5860;52.018;8.536;2023-06-22T03:02:13;18.60;99.90
11609;DHT22;5860;52.018;8.536;2023-06-22T03:04:39;18.60;99.90
11609;DHT22;5860;52.018;8.536;2023-06-22T03:07:06;18.60;99.90
11609;DHT22;5860;52.018;8.536;2023-06-22T03:09:33;18.60;99.90
11609;DHT22;5860;52.018;8.536;2023-06-22T03:12:00;18.50;99.90
11609;DHT22;5860;52.018;8.536;2023-06-22T03:14:28;18.60;99.90
11609;DHT22;5860;52.018;8.536;2023-06-22T03:16:56;18.60;99.90
11609;DHT22;5860;52.018;8.536;2023-06-22T03:19:28;18.50;99.90
11609;DHT22;5860;52.018;8.536;2023-06-22T03:21:57;18.50;99.90
11609;DHT22;5860;52.018;8.536;2023-06-22T03:24:23;18.40;99.90
11609;DHT22;5860;52.018;8.536;2023-06-22T03:26:50;18.40;99.90
11609;DHT22;5860;52.018;8.536;2023-06-22T03:29:17;18.30;99.90
11609;DHT22;5860;52.018;8.536;2023-06-22T03:31:44;18.30;99.90
11609;DHT22;5860;52.018;8.536;2023-06-22T03:34:12;18.40;99.90
11609;DHT22;5860;52.018;8.536;2023-06-22T03:36:38;18.40;99.90
11609;DHT22;5860;52.018;8.536;2023-06-22T03:39:05;18.50;99.90
11609;DHT22;5860;52.018;8.536;2023-06-22T03:41:32;18.50;99.90
11609;DHT22;5860;52.018;8.536;2023-06-22T03:43:59;18.70;99.90
11609;DHT22;5860;52.018;8.536;2023-06-22T03:46:26;18.60;99.90
11609;DHT22;5860;52.018;8.536;2023-06-22T03:48:56;18.70;99.90
11609;DHT22;5860;52.018;8.536;2023-06-22T03:51:22;18.70;99.90
11609;DHT22;5860;52.018;8.536;2023-06-22T03:53:49;18.70;99.90
11609;DHT22;5860;52.018;8.536;2023-06-22T03:56:17;18.70;99.90
11609;DHT22;5860;52.018;8.536;2023-06-22T03:58:46;19.00;99.90
11609;DHT22;5860;52.018;8.536;2023-06-22T04:01:13;19.20;99.90
11609;DHT22;5860;52.018;8.536;2023-06-22T04:03:41;19.30;99.90
11609;DHT22;5860;52.018;8.536;2023-06-22T04:06:08;19.70;99.90
11609;DHT22;5860;52.018;8.536;2023-06-22T04:08:35;19.40;99.90
11609;DHT22;5860;52.018;8.536;2023-06-22T04:11:02;19.20;99.90
11609;DHT22;5860;52.018;8.536;2023-06-22T04:13:28;19.00;99.90
11609;DHT22;5860;52.018;8.536;2023-06-22T04:15:55;19.00;99.90
11609;DHT22;5860;52.018;8.536;2023-06-22T04:18:22;18.90;99.90
11609;DHT22;5860;52.018;8.536;2023-06-22T04:20:49;18.90;99.90
11609;DHT22;5860;52.018;8.536;2023-06-22T04:23:16;18.90;99.90
11609;DHT22;5860;52.018;8.536;2023-06-22T04:25:43;18.90;99.90
11609;DHT22;5860;52.018;8.536;2023-06-22T04:28:10;19.00;99.90
11609;DHT22;5860;52.018;8.536;2023-06-22T04:30:39;19.20;99.90
11609;DHT22;5860;52.018;8.536;2023-06-22T04:33:14;19.30;99.90
11609;DHT22;5860;52.018;8.536;2023-06-22T04:35:41;19.40;99.90
11609;DHT22;5860;52.018;8.536;2023-06-22T04:38:08;19.40;99.90
11609;DHT22;5860;52.018;8.536;2023-06-22T04:40:35;19.60;99.90
11609;DHT22;5860;52.018;8.536;2023-06-22T04:43:01;19.80;99.90
11609;DHT22;5860;52.018;8.536;2023-06-22T04:45:29;19.90;99.90
11609;DHT22;5860;52.018;8.536;2023-06-22T04:47:56;20.40;99.90
11609;DHT22;5860;52.018;8.536;2023-06-22T04:50:23;20.70;99.90
11609;DHT22;5860;52.018;8.536;2023-06-22T04:52:51;20.70;99.90
11609;DHT22;5860;52.018;8.536;2023-06-22T04:55:19;20.40;99.90
11609;DHT22;5860;52.018;8.536;2023-06-22T04:57:46;20.20;99.90
11609;DHT22;5860;52.018;8.536;2023-06-22T05:00:18;20.10;99.90
11609;DHT22;5860;52.018;8.536;2023-06-22T05:02:46;19.90;99.90
11609;DHT22;5860;52.018;8.536;2023-06-22T05:05:14;19.70;99.90
11609;DHT22;5860;52.018;8.536;2023-06-22T05:07:43;19.70;99.90
11609;DHT22;5860;52.018;8.536;2023-06-22T05:10:11;19.80;99.90
11609;DHT22;5860;52.018;8.536;2023-06-22T05:12:40;19.90;99.90
11609;DHT22;5860;52.018;8.536;2023-06-22T05:15:07;20.00;99.90
11609;DHT22;5860;52.018;8.536;2023-06-22T05:17:35;20.00;99.90
11609;DHT22;5860;52.018;8.536;2023-06-22T05:20:02;20.20;99.90
11609;DHT22;5860;52.018;8.536;2023-06-22T05:22:33;20.20;99.90
11609;DHT22;5860;52.018;8.536;2023-06-22T05:24:59;20.30;99.90
11609;DHT22;5860;52.018;8.536;2023-06-22T05:27:26;20.50;99.90
11609;DHT22;5860;52.018;8.536;2023-06-22T05:29:53;20.70;99.90
11609;DHT22;5860;52.018;8.536;2023-06-22T05:32:20;21.60;99.90
11609;DHT22;5860;52.018;8.536;2023-06-22T05:34:47;21.30;99.90
11609;DHT22;5860;52.018;8.536;2023-06-22T05:37:14;21.40;99.90
11609;DHT22;5860;52.018;8.536;2023-06-22T05:39:41;21.30;99.90
11609;DHT22;5860;52.018;8.536;2023-06-22T05:42:08;21.10;99.90
11609;DHT22;5860;52.018;8.536;2023-06-22T05:44:36;21.00;99.90
11609;DHT22;5860;52.018;8.536;2023-06-22T05:47:05;21.40;99.90
11609;DHT22;5860;52.018;8.536;2023-06-22T05:49:32;21.30;99.90
11609;DHT22;5860;52.018;8.536;2023-06-22T05:52:00;21.80;99.90
11609;DHT22;5860;52.018;8.536;2023-06-22T05:54:27;22.70;99.90
11609;DHT22;5860;52.018;8.536;2023-06-22T05:56:54;23.60;99.90
11609;DHT22;5860;52.018;8.536;2023-06-22T05:59:21;23.10;99.90
11609;DHT22;5860;52.018;8.536;2023-06-22T06:01:48;23.60;99.90
11609;DHT22;5860;52.018;8.536;2023-06-22T06:04:18;23.10;99.90
11609;DHT22;5860;52.018;8.536;2023-06-22T06:06:46;23.80;99.90
11609;DHT22;5860;52.018;8.536;2023-06-22T06:09:16;23.40;99.90
11609;DHT22;5860;52.018;8.536;2023-06-22T06:11:43;24.00;99.90
11609;DHT22;5860;52.018;8.536;2023-06-22T06:14:09;25.10;99.90
11609;DHT22;5860;52.018;8.536;2023-06-22T06:16:36;24.70;99.90
11609;DHT22;5860;52.018;8.536;2023-06-22T06:19:03;23.90;99.90
11609;DHT22;5860;52.018;8.536;2023-06-22T06:21:30;23.20;99.90
11609;DHT22;5860;52.018;8.536;2023-06-22T06:23:57;23.10;99.90
11609;DHT22;5860;52.018;8.536;2023-06-22T06:26:25;23.10;99.90
11609;DHT22;5860;52.018;8.536;2023-06-22T06:28:56;23.20;99.90
11609;DHT22;5860;52.018;8.536;2023-06-22T06:31:24;22.90;99.90
11609;DHT22;5860;52.018;8.536;2023-06-22T06:33:51;23.00;99.90
11609;DHT22;5860;52.018;8.536;2023-06-22T06:36:18;23.20;99.90
11609;DHT22;5860;52.018;8.536;2023-06-22T06:38:45;24.50;99.90
11609;DHT22;5860;52.018;8.536;2023-06-22T06:41:15;25.30;99.90
11609;DHT22;5860;52.018;8.536;2023-06-22T06:43:42;25.10;99.90
11609;DHT22;5860;52.018;8.536;2023-06-22T06:46:10;24.30;99.90
11609;DHT22;5860;52.018;8.536;2023-06-22T06:48:37;23.80;99.90
11609;DHT22;5860;52.018;8.536;2023-06-22T06:51:03;23.60;99.90
11609;DHT22;5860;52.018;8.536;2023-06-22T06:53:30;23.50;99.90
11609;DHT22;5860;52.018;8.536;2023-06-22T06:55:57;23.10;99.90
11609;DHT22;5860;52.018;8.536;2023-06-22T06:58:24;22.80;99.90
11609;DHT22;5860;52.018;8.536;2023-06-22T07:00:51;23.00;99.90
11609;DHT22;5860;52.018;8.536;2023-06-22T07:03:18;22.30;99.90
11609;DHT22;5860;52.018;8.536;2023-06-22T07:05:45;22.20;99.90
11609;DHT22;5860;52.018;8.536;2023-06-22T07:08:12;22.40;99.90
11609;DHT22;5860;52.018;8.536;2023-06-22T07:10:39;22.50;99.90
11609;DHT22;5860;52.018;8.536;2023-06-22T07:13:05;22.40;99.90
11609;DHT22;5860;52.018;8.536;2023-06-22T07:15:32;22.20;99.90
11609;DHT22;5860;52.018;8.536;2023-06-22T07:17:59;22.10;99.90
11609;DHT22;5860;52.018;8.536;2023-06-22T07:20:26;22.00;99.90
11609;DHT22;5860;52.018;8.536;2023-06-22T07:22:54;22.00;99.90
11609;DHT22;5860;52.018;8.536;2023-06-22T07:25:21;22.00;99.90
11609;DHT22;5860;52.018;8.536;2023-06-22T07:28:02;22.00;99.90
11609;DHT22;5860;52.018;8.536;2023-06-22T07:30:30;22.30;99.90
11609;DHT22;5860;52.018;8.536;2023-06-22T07:33:00;22.20;99.90
11609;DHT22;5860;52.018;8.536;2023-06-22T07:35:31;22.10;99.90
11609;DHT22;5860;52.018;8.536;2023-06-22T07:37:58;22.10;99.90
11609;DHT22;5860;52.018;8.536;2023-06-22T07:40:29;22.20;99.90
11609;DHT22;5860;52.018;8.536;2023-06-22T07:42:57;22.00;99.90
11609;DHT22;5860;52.018;8.536;2023-06-22T07:45:24;22.00;99.90
11609;DHT22;5860;52.018;8.536;2023-06-22T07:47:51;22.10;99.90
11609;DHT22;5860;52.018;8.536;2023-06-22T07:50:18;22.00;99.90
11609;DHT22;5860;52.018;8.536;2023-06-22T07:52:45;22.10;99.90
11609;DHT22;5860;52.018;8.536;2023-06-22T07:55:12;22.20;99.90
11609;DHT22;5860;52.018;8.536;2023-06-22T07:57:39;22.40;99.90
11609;DHT22;5860;52.018;8.536;2023-06-22T08:00:09;22.40;99.90
11609;DHT22;5860;52.018;8.536;2023-06-22T08:02:44;22.50;99.90
11609;DHT22;5860;52.018;8.536;2023-06-22T08:05:12;22.70;99.90
11609;DHT22;5860;52.018;8.536;2023-06-22T08:07:48;22.40;99.90
11609;DHT22;5860;52.018;8.536;2023-06-22T08:10:15;22.30;99.90
11609;DHT22;5860;52.018;8.536;2023-06-22T08:12:42;22.40;99.90
11609;DHT22;5860;52.018;8.536;2023-06-22T08:15:09;22.40;99.90
11609;DHT22;5860;52.018;8.536;2023-06-22T08:17:40;22.30;99.90
11609;DHT22;5860;52.018;8.536;2023-06-22T08:20:08;22.50;99.90
11609;DHT22;5860;52.018;8.536;2023-06-22T08:22:41;22.70;99.90
11609;DHT22;5860;52.018;8.536;2023-06-22T08:25:09;22.60;99.90
11609;DHT22;5860;52.018;8.536;2023-06-22T08:27:36;22.60;99.90
11609;DHT22;5860;52.018;8.536;2023-06-22T08:30:04;22.90;99.90
11609;DHT22;5860;52.018;8.536;2023-06-22T08:32:31;23.20;99.90
11609;DHT22;5860;52.018;8.536;2023-06-22T08:35:00;23.40;99.90
11609;DHT22;5860;52.018;8.536;2023-06-22T08:37:28;23.40;99.90
11609;DHT22;5860;52.018;8.536;2023-06-22T08:40:03;23.80;99.90
11609;DHT22;5860;52.018;8.536;2023-06-22T08:42:36;24.20;99.90
11609;DHT22;5860;52.018;8.536;2023-06-22T08:45:03;24.40;99.90
11609;DHT22;5860;52.018;8.536;2023-06-22T08:47:30;24.80;99.90
11609;DHT22;5860;52.018;8.536;2023-06-22T08:49:58;24.80;99.90
11609;DHT22;5860;52.018;8.536;2023-06-22T08:52:25;24.30;99.90
11609;DHT22;5860;52.018;8.536;2023-06-22T08:54:52;24.50;99.90
11609;DHT22;5860;52.018;8.536;2023-06-22T08:57:21;25.00;99.90
11609;DHT22;5860;52.018;8.536;2023-06-22T08:59:48;24.70;99.90
11609;DHT22;5860;52.018;8.536;2023-06-22T09:02:15;25.00;99.90
11609;DHT22;5860;52.018;8.536;2023-06-22T09:04:42;24.80;99.90
11609;DHT22;5860;52.018;8.536;2023-06-22T09:07:09;24.50;99.90
11609;DHT22;5860;52.018;8.536;2023-06-22T09:09:36;24.80;99.90
11609;DHT22;5860;52.018;8.536;2023-06-22T09:12:03;24.90;99.90
11609;DHT22;5860;52.018;8.536;2023-06-22T09:14:30;25.60;99.90
11609;DHT22;5860;52.018;8.536;2023-06-22T09:16:57;26.20;99.90
11609;DHT22;5860;52.018;8.536;2023-06-22T09:19:24;25.60;99.90
11609;DHT22;5860;52.018;8.536;2023-06-22T09:21:51;25.40;99.90
11609;DHT22;5860;52.018;8.536;2023-06-22T09:24:18;25.10;99.90
11609;DHT22;5860;52.018;8.536;2023-06-22T09:26:45;25.00;99.90
11609;DHT22;5860;52.018;8.536;2023-06-22T09:29:12;25.20;99.90
11609;DHT22;5860;52.018;8.536;2023-06-22T09:31:39;25.30;99.90
11609;DHT22;5860;52.018;8.536;2023-06-22T09:34:06;24.90;99.90
11609;DHT22;5860;52.018;8.536;2023-06-22T09:36:33;25.20;99.90
11609;DHT22;5860;52.018;8.536;2023-06-22T09:39:00;25.30;99.90
11609;DHT22;5860;52.018;8.536;2023-06-22T09:41:32;25.10;99.90
11609;DHT22;5860;52.018;8.536;2023-06-22T09:43:59;25.00;99.90
11609;DHT22;5860;52.018;8.536;2023-06-22T09:46:26;25.00;99.90
11609;DHT22;5860;52.018;8.536;2023-06-22T09:48:53;24.80;99.90
11609;DHT22;5860;52.018;8.536;2023-06-22T09:51:20;24.50;99.90
11609;DHT22;5860;52.018;8.536;2023-06-22T09:53:48;24.90;99.90
11609;DHT22;5860;52.018;8.536;2023-06-22T09:56:15;24.90;99.90
11609;DHT22;5860;52.018;8.536;2023-06-22T09:58:43;26.00;99.90
11609;DHT22;5860;52.018;8.536;2023-06-22T10:01:10;26.60;99.90
11609;DHT22;5860;52.018;8.536;2023-06-22T10:03:37;26.70;99.90
11609;DHT22;5860;52.018;8.536;2023-06-22T10:06:04;26.90;99.90
11609;DHT22;5860;52.018;8.536;2023-06-22T10:08:31;27.00;99.90
11609;DHT22;5860;52.018;8.536;2023-06-22T10:10:58;27.20;99.90
11609;DHT22;5860;52.018;8.536;2023-06-22T10:13:25;26.80;99.90
11609;DHT22;5860;52.018;8.536;2023-06-22T10:15:52;27.30;99.90
11609;DHT22;5860;52.018;8.536;2023-06-22T10:18:20;26.70;99.90
11609;DHT22;5860;52.018;8.536;2023-06-22T10:20:48;27.30;99.90
11609;DHT22;5860;52.018;8.536;2023-06-22T10:23:18;26.80;99.90
11609;DHT22;5860;52.018;8.536;2023-06-22T10:25:45;26.00;99.90
11609;DHT22;5860;52.018;8.536;2023-06-22T10:28:12;26.30;99.90
11609;DHT22;5860;52.018;8.536;2023-06-22T10:30:40;26.70;99.90
11609;DHT22;5860;52.018;8.536;2023-06-22T10:33:11;26.50;99.90
11609;DHT22;5860;52.018;8.536;2023-06-22T10:35:38;26.20;99.90
11609;DHT22;5860;52.018;8.536;2023-06-22T10:38:06;26.20;99.90
11609;DHT22;5860;52.018;8.536;2023-06-22T10:40:33;26.60;99.90
11609;DHT22;5860;52.018;8.536;2023-06-22T10:43:00;27.00;99.90
11609;DHT22;5860;52.018;8.536;2023-06-22T10:45:27;27.50;99.90
11609;DHT22;5860;52.018;8.536;2023-06-22T10:47:55;27.70;99.90
11609;DHT22;5860;52.018;8.536;2023-06-22T10:50:22;27.00;99.90
11609;DHT22;5860;52.018;8.536;2023-06-22T10:52:51;27.80;99.90
11609;DHT22;5860;52.018;8.536;2023-06-22T10:55:18;26.90;99.90
11609;DHT22;5860;52.018;8.536;2023-06-22T10:57:45;26.40;99.90
11609;DHT22;5860;52.018;8.536;2023-06-22T11:00:15;26.30;99.90
11609;DHT22;5860;52.018;8.536;2023-06-22T11:02:43;26.10;99.90
11609;DHT22;5860;52.018;8.536;2023-06-22T11:05:11;26.20;99.90
11609;DHT22;5860;52.018;8.536;2023-06-22T11:07:42;26.20;99.90
11609;DHT22;5860;52.018;8.536;2023-06-22T11:10:14;26.40;99.90
11609;DHT22;5860;52.018;8.536;2023-06-22T11:12:41;26.30;99.90
11609;DHT22;5860;52.018;8.536;2023-06-22T11:15:09;26.50;99.90
11609;DHT22;5860;52.018;8.536;2023-06-22T11:17:37;26.70;99.90
11609;DHT22;5860;52.018;8.536;2023-06-22T11:20:05;26.80;99.90
11609;DHT22;5860;52.018;8.536;2023-06-22T11:22:42;26.80;99.90
11609;DHT22;5860;52.018;8.536;2023-06-22T11:25:09;27.10;99.90
11609;DHT22;5860;52.018;8.536;2023-06-22T11:27:37;27.30;99.90
11609;DHT22;5860;52.018;8.536;2023-06-22T11:30:05;27.00;99.90
11609;DHT22;5860;52.018;8.536;2023-06-22T11:32:32;27.00;99.90
11609;DHT22;5860;52.018;8.536;2023-06-22T11:34:59;27.20;99.90
11609;DHT22;5860;52.018;8.536;2023-06-22T11:37:26;27.20;99.90
11609;DHT22;5860;52.018;8.536;2023-06-22T11:39:53;26.60;99.90
11609;DHT22;5860;52.018;8.536;2023-06-22T11:42:33;26.60;99.90
11609;DHT22;5860;52.018;8.536;2023-06-22T11:45:01;26.70;99.90
11609;DHT22;5860;52.018;8.536;2023-06-22T11:47:29;26.70;99.90
11609;DHT22;5860;52.018;8.536;2023-06-22T11:49:56;26.70;99.90
11609;DHT22;5860;52.018;8.536;2023-06-22T11:52:23;26.70;99.90
11609;DHT22;5860;52.018;8.536;2023-06-22T11:54:49;27.00;99.90
11609;DHT22;5860;52.018;8.536;2023-06-22T11:57:16;26.80;99.90
11609;DHT22;5860;52.018;8.536;2023-06-22T11:59:43;26.70;99.90
11609;DHT22;5860;52.018;8.536;2023-06-22T12:02:10;26.60;99.90
11609;DHT22;5860;52.018;8.536;2023-06-22T12:04:37;26.50;99.90
11609;DHT22;5860;52.018;8.536;2023-06-22T12:07:04;26.30;99.90
11609;DHT22;5860;52.018;8.536;2023-06-22T12:09:31;26.90;99.90
11609;DHT22;5860;52.018;8.536;2023-06-22T12:11:58;27.00;99.90
11609;DHT22;5860;52.018;8.536;2023-06-22T12:14:25;26.90;99.90
11609;DHT22;5860;52.018;8.536;2023-06-22T12:16:52;26.70;99.90
11609;DHT22;5860;52.018;8.536;2023-06-22T12:19:19;26.50;99.90
11609;DHT22;5860;52.018;8.536;2023-06-22T12:21:46;26.50;99.90
11609;DHT22;5860;52.018;8.536;2023-06-22T12:24:13;26.00;99.90
11609;DHT22;5860;52.018;8.536;2023-06-22T12:26:39;25.90;99.90
11609;DHT22;5860;52.018;8.536;2023-06-22T12:29:06;25.90;99.90
11609;DHT22;5860;52.018;8.536;2023-06-22T12:31:33;25.80;99.90
11609;DHT22;5860;52.018;8.536;2023-06-22T12:34:00;25.60;99.90
11609;DHT22;5860;52.018;8.536;2023-06-22T12:36:27;25.40;99.90
11609;DHT22;5860;52.018;8.536;2023-06-22T12:38:54;25.40;99.90
11609;DHT22;5860;52.018;8.536;2023-06-22T12:41:22;25.20;99.90
11609;DHT22;5860;52.018;8.536;2023-06-22T12:43:49;25.00;99.90
11609;DHT22;5860;52.018;8.536;2023-06-22T12:46:16;24.80;99.90
11609;DHT22;5860;52.018;8.536;2023-06-22T12:48:42;24.70;99.90
11609;DHT22;5860;52.018;8.536;2023-06-22T12:51:09;24.70;99.90
11609;DHT22;5860;52.018;8.536;2023-06-22T12:53:36;24.70;99.90
11609;DHT22;5860;52.018;8.536;2023-06-22T12:56:03;24.60;99.90
11609;DHT22;5860;52.018;8.536;2023-06-22T12:58:30;24.50;99.90
11609;DHT22;5860;52.018;8.536;2023-06-22T13:00:57;24.50;99.90
11609;DHT22;5860;52.018;8.536;2023-06-22T13:03:24;24.50;99.90
11609;DHT22;5860;52.018;8.536;2023-06-22T13:05:53;24.40;99.90
11609;DHT22;5860;52.018;8.536;2023-06-22T13:08:20;24.40;99.90
11609;DHT22;5860;52.018;8.536;2023-06-22T13:10:47;24.30;99.90
11609;DHT22;5860;52.018;8.536;2023-06-22T13:13:14;24.20;99.90
11609;DHT22;5860;52.018;8.536;2023-06-22T13:15:41;24.10;99.90
11609;DHT22;5860;52.018;8.536;2023-06-22T13:18:08;24.00;99.90
11609;DHT22;5860;52.018;8.536;2023-06-22T13:20:35;23.80;99.90
11609;DHT22;5860;52.018;8.536;2023-06-22T13:23:02;23.70;99.90
11609;DHT22;5860;52.018;8.536;2023-06-22T13:25:29;23.60;99.90
11609;DHT22;5860;52.018;8.536;2023-06-22T13:27:56;23.40;99.90
11609;DHT22;5860;52.018;8.536;2023-06-22T13:30:23;23.40;99.90
11609;DHT22;5860;52.018;8.536;2023-06-22T13:32:50;23.30;99.90
11609;DHT22;5860;52.018;8.536;2023-06-22T13:35:17;23.30;99.90
11609;DHT22;5860;52.018;8.536;2023-06-22T13:37:44;23.30;99.90
11609;DHT22;5860;52.018;8.536;2023-06-22T13:40:11;23.20;99.90
11609;DHT22;5860;52.018;8.536;2023-06-22T13:42:38;23.10;99.90
11609;DHT22;5860;52.018;8.536;2023-06-22T13:45:06;22.90;99.90
11609;DHT22;5860;52.018;8.536;2023-06-22T13:47:33;22.90;99.90
11609;DHT22;5860;52.018;8.536;2023-06-22T13:50:01;22.50;99.90
11609;DHT22;5860;52.018;8.536;2023-06-22T13:52:27;21.60;99.90
11609;DHT22;5860;52.018;8.536;2023-06-22T13:54:54;21.40;99.90
11609;DHT22;5860;52.018;8.536;2023-06-22T13:57:21;21.30;99.90
11609;DHT22;5860;52.018;8.536;2023-06-22T13:59:48;21.30;99.90
11609;DHT22;5860;52.018;8.536;2023-06-22T14:02:15;21.20;99.90
11609;DHT22;5860;52.018;8.536;2023-06-22T14:04:43;21.00;99.90
11609;DHT22;5860;52.018;8.536;2023-06-22T14:07:10;21.00;99.90
11609;DHT22;5860;52.018;8.536;2023-06-22T14:09:37;21.00;99.90
11609;DHT22;5860;52.018;8.536;2023-06-22T14:12:05;21.00;99.90
11609;DHT22;5860;52.018;8.536;2023-06-22T14:14:33;20.90;99.90
11609;DHT22;5860;52.018;8.536;2023-06-22T14:17:00;20.80;99.90
11609;DHT22;5860;52.018;8.536;2023-06-22T14:19:27;20.60;99.90
11609;DHT22;5860;52.018;8.536;2023-06-22T14:21:54;20.50;99.90
11609;DHT22;5860;52.018;8.536;2023-06-22T14:24:21;20.50;99.90
11609;DHT22;5860;52.018;8.536;2023-06-22T14:26:51;20.50;99.90
11609;DHT22;5860;52.018;8.536;2023-06-22T14:29:18;20.50;99.90
11609;DHT22;5860;52.018;8.536;2023-06-22T14:31:45;20.50;99.90
11609;DHT22;5860;52.018;8.536;2023-06-22T14:34:13;20.40;99.90
11609;DHT22;5860;52.018;8.536;2023-06-22T14:36:40;20.60;99.90
11609;DHT22;5860;52.018;8.536;2023-06-22T14:39:07;20.50;99.90
11609;DHT22;5860;52.018;8.536;2023-06-22T14:41:35;20.40;99.90
11609;DHT22;5860;52.018;8.536;2023-06-22T14:44:02;20.50;99.90
11609;DHT22;5860;52.018;8.536;2023-06-22T14:46:28;20.50;99.90
11609;DHT22;5860;52.018;8.536;2023-06-22T14:48:55;20.50;99.90
11609;DHT22;5860;52.018;8.536;2023-06-22T14:51:23;20.50;99.90
11609;DHT22;5860;52.018;8.536;2023-06-22T14:53:49;20.50;99.90
11609;DHT22;5860;52.018;8.536;2023-06-22T14:56:17;20.50;99.90
11609;DHT22;5860;52.018;8.536;2023-06-22T14:58:44;20.30;99.90
11609;DHT22;5860;52.018;8.536;2023-06-22T15:01:17;20.30;99.90
11609;DHT22;5860;52.018;8.536;2023-06-22T15:03:44;20.20;99.90
11609;DHT22;5860;52.018;8.536;2023-06-22T15:06:11;20.30;99.90
11609;DHT22;5860;52.018;8.536;2023-06-22T15:08:40;20.30;99.90
11609;DHT22;5860;52.018;8.536;2023-06-22T15:11:08;20.40;99.90
11609;DHT22;5860;52.018;8.536;2023-06-22T15:13:38;20.40;99.90
11609;DHT22;5860;52.018;8.536;2023-06-22T15:16:05;20.50;99.90
11609;DHT22;5860;52.018;8.536;2023-06-22T15:18:33;20.50;99.90
11609;DHT22;5860;52.018;8.536;2023-06-22T15:21:02;20.60;99.90
11609;DHT22;5860;52.018;8.536;2023-06-22T15:23:31;20.70;99.90
11609;DHT22;5860;52.018;8.536;2023-06-22T15:26:02;20.70;99.90
11609;DHT22;5860;52.018;8.536;2023-06-22T15:28:30;20.80;99.90
11609;DHT22;5860;52.018;8.536;2023-06-22T15:30:58;20.80;99.90
11609;DHT22;5860;52.018;8.536;2023-06-22T15:33:25;21.00;99.90
11609;DHT22;5860;52.018;8.536;2023-06-22T15:35:52;21.10;99.90
11609;DHT22;5860;52.018;8.536;2023-06-22T15:38:22;21.20;99.90
11609;DHT22;5860;52.018;8.536;2023-06-22T15:40:49;21.20;99.90
11609;DHT22;5860;52.018;8.536;2023-06-22T15:43:16;21.10;99.90
11609;DHT22;5860;52.018;8.536;2023-06-22T15:45:43;21.20;99.90
11609;DHT22;5860;52.018;8.536;2023-06-22T15:48:10;21.10;99.90